createdAt,value
2022-12-14T00:02:54.066Z,97330.16
2022-12-14T00:08:17.915Z,97336.16
2022-12-14T00:13:41.039Z,97308.50
2022-12-14T00:19:05.239Z,97283.59
2022-12-14T00:24:26.991Z,97278.00
2022-12-14T00:29:48.716Z,97283.84
2022-12-14T00:35:12.151Z,97275.06
2022-12-14T00:40:33.919Z,97269.19
2022-12-14T00:45:55.717Z,97271.41
2022-12-14T00:51:18.396Z,97263.19
2022-12-14T00:56:40.137Z,97268.03
2022-12-14T01:02:01.976Z,97273.28
2022-12-14T01:07:23.796Z,97274.94
2022-12-14T01:12:45.643Z,97277.47
2022-12-14T01:18:07.616Z,97272.34
2022-12-14T01:23:29.964Z,97269.19
2022-12-14T01:28:57.176Z,97254.63
2022-12-14T01:34:19.324Z,97258.81
2022-12-14T01:39:41.119Z,97270.22
2022-12-14T01:45:03.902Z,97282.44
2022-12-14T01:50:35.846Z,97268.09
2022-12-14T01:55:57.654Z,97252.50
2022-12-14T02:01:19.493Z,97235.38
2022-12-14T02:06:44.029Z,97224.97
2022-12-14T02:12:12.861Z,97232.84
2022-12-14T02:17:35.053Z,97232.22
2022-12-14T02:23:29.387Z,97228.09
2022-12-14T02:29:23.736Z,97209.88
2022-12-14T02:35:04.120Z,97211.63
2022-12-14T02:40:47.099Z,97215.59
2022-12-14T02:46:29.040Z,97209.09
2022-12-14T02:52:14.061Z,97198.66
2022-12-14T02:57:50.631Z,97196.34
2022-12-14T03:03:12.452Z,97181.63
2022-12-14T03:08:36.072Z,97182.06
2022-12-14T03:14:15.504Z,97180.81
2022-12-14T03:19:54.743Z,97172.25
2022-12-14T03:25:24.549Z,97179.78
2022-12-14T03:31:01.314Z,97174.66
2022-12-14T03:36:33.499Z,97172.00
2022-12-14T03:42:10.099Z,97162.81
2022-12-14T03:48:09.291Z,97143.47
2022-12-14T03:53:33.935Z,97131.84
2022-12-14T03:59:12.069Z,97130.25
2022-12-14T04:04:49.137Z,97118.28
2022-12-14T04:10:38.756Z,97111.75
2022-12-14T04:16:26.385Z,97105.81
2022-12-14T04:21:53.225Z,97097.31
2022-12-14T04:27:24.683Z,97093.28
2022-12-14T04:32:53.971Z,97083.31
2022-12-14T04:38:20.097Z,97065.28
2022-12-14T04:43:48.979Z,97069.28
2022-12-14T04:49:18.344Z,97071.16
2022-12-14T04:54:59.754Z,97067.63
2022-12-14T05:00:21.495Z,97057.72
2022-12-14T05:06:06.246Z,97044.69
2022-12-14T05:17:14.988Z,97055.72
2022-12-14T05:22:38.753Z,97050.69
2022-12-14T05:28:00.502Z,97041.84
2022-12-14T05:33:22.300Z,97042.22
2022-12-14T05:38:44.068Z,97039.81
2022-12-14T05:44:05.964Z,97035.59
2022-12-14T05:49:27.709Z,97033.47
2022-12-14T05:54:49.439Z,97014.97
2022-12-14T06:00:11.703Z,97008.75
2022-12-14T06:05:33.627Z,96993.56
2022-12-14T06:11:02.578Z,96992.16
2022-12-14T06:16:25.691Z,96998.06
2022-12-14T06:21:47.519Z,96987.78
2022-12-14T06:27:09.248Z,96999.00
2022-12-14T06:32:31.005Z,97006.16
2022-12-14T06:37:52.757Z,97004.19
2022-12-14T06:43:15.288Z,96984.25
2022-12-14T06:48:37.113Z,96977.53
2022-12-14T06:53:58.936Z,96963.50
2022-12-14T06:59:20.968Z,96946.75
2022-12-14T07:04:42.692Z,96941.31
2022-12-14T07:10:05.047Z,96950.47
2022-12-14T07:15:26.830Z,96941.31
2022-12-14T07:20:59.795Z,96919.19
2022-12-14T07:26:27.527Z,96925.50
2022-12-14T07:31:49.940Z,96915.81
2022-12-14T07:37:13.188Z,96923.56
2022-12-14T07:42:34.899Z,96913.53
2022-12-14T07:47:57.072Z,96909.69
2022-12-14T07:53:18.818Z,96899.66
2022-12-14T07:58:41.082Z,96888.50
2022-12-14T08:04:09.272Z,96881.88
2022-12-14T08:09:31.420Z,96881.09
2022-12-14T08:14:53.235Z,96880.47
2022-12-14T08:20:15.065Z,96876.66
2022-12-14T08:25:36.820Z,96870.34
2022-12-14T08:31:04.644Z,96863.22
2022-12-14T08:36:29.535Z,96878.69
2022-12-14T08:41:51.508Z,96886.16
2022-12-14T08:47:13.215Z,96904.34
2022-12-14T08:52:34.989Z,96887.66
2022-12-14T08:57:56.980Z,96875.44
2022-12-14T09:03:18.860Z,96884.75
2022-12-14T09:08:41.152Z,96880.19
2022-12-14T09:14:03.022Z,96882.38
2022-12-14T09:19:24.829Z,96876.84
2022-12-14T09:24:46.613Z,96877.81
2022-12-14T09:30:08.879Z,96873.69
2022-12-14T09:35:30.570Z,96859.31
2022-12-14T09:40:57.384Z,96852.00
2022-12-14T09:46:44.157Z,96851.81
2022-12-14T09:52:10.283Z,96853.59
2022-12-14T09:57:39.130Z,96846.66
2022-12-14T10:03:58.104Z,96847.84
2022-12-14T10:09:32.653Z,96843.81
2022-12-14T10:15:01.962Z,96847.16
2022-12-14T10:20:35.796Z,96845.47
2022-12-14T10:26:07.462Z,96834.78
2022-12-14T10:31:44.832Z,96835.19
2022-12-14T10:37:12.578Z,96824.03
2022-12-14T10:42:43.823Z,96823.72
2022-12-14T10:48:39.855Z,96812.28
2022-12-14T10:54:08.620Z,96809.06
2022-12-14T10:59:39.619Z,96808.84
2022-12-14T11:05:16.933Z,96813.63
2022-12-14T11:10:41.556Z,96817.72
2022-12-14T11:16:33.677Z,96806.41
2022-12-14T11:22:18.446Z,96802.13
2022-12-14T11:27:43.660Z,96812.69
2022-12-14T11:33:05.484Z,96809.13
2022-12-14T11:38:29.972Z,96809.81
2022-12-14T11:44:04.166Z,96797.03
2022-12-14T11:49:43.835Z,96792.63
2022-12-14T11:55:26.177Z,96798.56
2022-12-14T12:00:50.816Z,96791.41
2022-12-14T12:06:15.648Z,96780.41
2022-12-14T12:11:45.262Z,96787.97
2022-12-14T12:17:37.519Z,96806.53
2022-12-14T12:23:06.821Z,96803.06
2022-12-14T12:28:34.175Z,96799.41
2022-12-14T12:34:01.899Z,96797.88
2022-12-14T12:39:24.931Z,96803.84
2022-12-14T12:45:05.293Z,96806.41
2022-12-14T12:50:32.092Z,96809.16
2022-12-14T12:56:03.482Z,96816.88
2022-12-14T13:01:28.736Z,96819.59
2022-12-14T13:06:56.795Z,96827.94
2022-12-14T13:12:28.523Z,96840.22
2022-12-14T13:18:05.512Z,96849.81
2022-12-14T13:23:45.535Z,96836.28
2022-12-14T13:29:23.304Z,96845.66
2022-12-14T13:35:31.436Z,96839.13
2022-12-14T13:41:08.831Z,96822.94
2022-12-14T13:46:31.034Z,96846.09
2022-12-14T13:51:52.959Z,96865.59
2022-12-14T13:57:23.328Z,96860.53
2022-12-14T14:02:53.440Z,96871.63
2022-12-14T14:08:39.208Z,96875.41
2022-12-14T14:14:11.947Z,96895.28
2022-12-14T14:19:39.465Z,96898.63
2022-12-14T14:25:25.765Z,96903.56
2022-12-14T14:30:54.258Z,96899.19
2022-12-14T14:36:30.437Z,96913.41
2022-12-14T14:41:53.515Z,96918.31
2022-12-14T14:47:35.763Z,96943.50
2022-12-14T14:53:19.474Z,96941.94
2022-12-14T14:58:42.401Z,96959.91
2022-12-14T15:04:21.517Z,96974.84
2022-12-14T15:09:59.563Z,96986.53
2022-12-14T15:15:36.104Z,97010.59
2022-12-14T15:21:19.261Z,97008.06
2022-12-14T15:26:41.659Z,97025.03
2022-12-14T15:32:05.029Z,97049.28
2022-12-14T15:37:48.747Z,97049.84
2022-12-14T15:43:20.818Z,97056.28
2022-12-14T15:48:42.954Z,97057.75
2022-12-14T15:54:07.319Z,97062.56
2022-12-14T15:59:32.288Z,97084.38
2022-12-14T16:04:56.700Z,97089.19
2022-12-14T16:10:24.060Z,97088.91
2022-12-14T16:15:46.613Z,97095.25
2022-12-14T16:21:26.369Z,97102.97
2022-12-14T16:26:56.975Z,97109.97
2022-12-14T16:32:21.269Z,97120.59
2022-12-14T16:37:43.155Z,97107.47
2022-12-14T16:43:06.598Z,97124.19
2022-12-14T16:48:29.192Z,97136.91
2022-12-14T16:54:02.451Z,97138.91
2022-12-14T16:59:44.308Z,97138.34
2022-12-14T17:05:14.389Z,97149.63
2022-12-14T17:10:38.741Z,97153.63
2022-12-14T17:16:03.772Z,97165.84
2022-12-14T17:21:28.333Z,97170.66
2022-12-14T17:26:52.511Z,97181.53
2022-12-14T17:32:16.540Z,97177.97
2022-12-14T17:37:38.329Z,97177.31
2022-12-14T17:43:00.024Z,97187.44
2022-12-14T17:48:21.786Z,97189.72
2022-12-14T17:53:43.883Z,97186.50
2022-12-14T17:59:05.651Z,97190.81
2022-12-14T18:04:27.559Z,97195.84
2022-12-14T18:09:50.477Z,97201.66
2022-12-14T18:15:19.575Z,97208.59
2022-12-14T18:20:43.077Z,97217.84
2022-12-14T18:26:06.124Z,97232.41
2022-12-14T18:31:35.948Z,97221.94
2022-12-14T18:36:58.111Z,97218.34
2022-12-14T18:42:22.675Z,97222.41
2022-12-14T18:47:45.819Z,97211.47
2022-12-14T18:53:11.805Z,97228.13
2022-12-14T18:58:33.665Z,97236.38
2022-12-14T19:03:55.596Z,97227.84
2022-12-14T19:09:17.648Z,97250.75
2022-12-14T19:14:40.044Z,97266.47
2022-12-14T19:20:02.150Z,97260.38
2022-12-14T19:25:24.370Z,97262.41
2022-12-14T19:30:46.620Z,97256.53
2022-12-14T19:36:09.324Z,97265.50
2022-12-14T19:41:31.196Z,97264.88
2022-12-14T19:46:53.092Z,97262.25
2022-12-14T19:52:14.894Z,97268.88
2022-12-14T19:57:38.377Z,97274.19
2022-12-14T20:03:00.297Z,97280.06
2022-12-14T20:08:23.137Z,97278.25
2022-12-14T20:13:44.848Z,97277.31
2022-12-14T20:19:07.073Z,97282.22
2022-12-14T20:24:28.976Z,97298.00
2022-12-14T20:29:50.845Z,97301.03
2022-12-14T20:35:16.713Z,97302.50
2022-12-14T20:40:39.480Z,97307.59
2022-12-14T20:46:02.018Z,97305.59
2022-12-14T20:51:24.093Z,97313.94
2022-12-14T20:56:49.389Z,97312.78
2022-12-14T21:02:20.531Z,97308.16
2022-12-14T21:07:42.469Z,97316.66
2022-12-14T21:13:07.576Z,97317.25
2022-12-14T21:18:29.815Z,97313.09
2022-12-14T21:23:51.579Z,97307.31
2022-12-14T21:29:14.317Z,97321.31
2022-12-14T21:34:36.239Z,97312.38
2022-12-14T21:39:57.935Z,97323.22
2022-12-14T21:45:19.716Z,97330.88
2022-12-14T21:50:43.634Z,97335.16
2022-12-14T21:56:24.537Z,97334.91
2022-12-14T22:01:46.363Z,97328.81
2022-12-14T22:07:08.175Z,97338.47
2022-12-14T22:12:29.967Z,97340.13
2022-12-14T22:17:51.767Z,97346.16
2022-12-14T22:23:13.587Z,97348.44
2022-12-14T22:28:35.365Z,97338.88
2022-12-14T22:33:57.533Z,97339.97
2022-12-14T22:39:19.741Z,97341.75
2022-12-14T22:44:41.521Z,97341.53
2022-12-14T22:50:03.540Z,97337.25
2022-12-14T22:55:27.836Z,97338.97
2022-12-14T23:00:50.028Z,97351.16
2022-12-14T23:06:15.534Z,97350.63
2022-12-14T23:11:55.760Z,97360.75
2022-12-14T23:17:36.506Z,97361.97
2022-12-14T23:23:16.674Z,97365.88
2022-12-14T23:28:57.525Z,97365.88
2022-12-14T23:34:38.121Z,97366.59
2022-12-14T23:40:18.268Z,97359.66
2022-12-14T23:45:58.967Z,97355.34
2022-12-14T23:51:39.035Z,97358.25
2022-12-14T23:57:19.346Z,97351.53
